createdAt,value
2019-05-30T00:02:05.120Z,94.80
2019-05-30T00:04:35.026Z,94.80
2019-05-30T00:07:04.920Z,94.60
2019-05-30T00:09:34.490Z,94.50
2019-05-30T00:12:05.038Z,94.40
2019-05-30T00:14:35.140Z,94.30
2019-05-30T00:17:05.161Z,94.10
2019-05-30T00:19:34.980Z,94.00
2019-05-30T00:22:05.631Z,94.00
2019-05-30T00:24:36.252Z,94.10
2019-05-30T00:27:06.626Z,93.90
2019-05-30T00:29:37.418Z,93.90
2019-05-30T00:32:07.860Z,93.90
2019-05-30T00:34:37.431Z,93.80
2019-05-30T00:37:06.978Z,93.90
2019-05-30T00:39:36.582Z,94.00
2019-05-30T00:42:06.740Z,94.10
2019-05-30T00:44:38.079Z,93.90
2019-05-30T00:47:07.670Z,93.90
2019-05-30T00:49:38.421Z,93.90
2019-05-30T00:52:08.037Z,93.90
2019-05-30T00:54:37.557Z,94.00
2019-05-30T00:57:07.341Z,94.00
2019-05-30T00:59:38.153Z,94.10
2019-05-30T01:02:07.616Z,94.20
2019-05-30T01:04:37.125Z,94.30
2019-05-30T01:07:07.238Z,94.20
2019-05-30T01:09:37.831Z,94.20
2019-05-30T01:12:08.663Z,94.50
2019-05-30T01:14:38.246Z,94.50
2019-05-30T01:17:07.711Z,94.70
2019-05-30T01:19:37.790Z,94.70
2019-05-30T01:22:07.704Z,94.70
2019-05-30T01:24:37.477Z,94.80
2019-05-30T01:27:07.631Z,94.90
2019-05-30T01:29:37.624Z,94.90
2019-05-30T01:32:25.034Z,95.00
2019-05-30T01:34:54.847Z,95.00
2019-05-30T01:37:24.449Z,95.20
2019-05-30T01:39:56.153Z,95.10
2019-05-30T01:42:26.575Z,95.10
2019-05-30T01:44:56.021Z,95.10
2019-05-30T01:47:25.630Z,95.20
2019-05-30T01:49:55.315Z,95.10
2019-05-30T01:52:24.969Z,95.00
2019-05-30T01:54:54.408Z,94.90
2019-05-30T01:57:23.908Z,94.90
2019-05-30T01:59:53.915Z,95.00
2019-05-30T02:02:23.347Z,95.10
2019-05-30T02:04:52.879Z,95.10
2019-05-30T02:07:22.557Z,95.20
2019-05-30T02:09:52.045Z,95.10
2019-05-30T02:12:21.586Z,95.10
2019-05-30T02:14:51.354Z,95.20
2019-05-30T02:17:21.068Z,95.40
2019-05-30T02:19:50.801Z,95.70
2019-05-30T02:22:20.313Z,95.40
2019-05-30T02:24:49.979Z,95.40
2019-05-30T02:27:19.879Z,95.50
2019-05-30T02:29:49.538Z,95.60
2019-05-30T02:32:19.273Z,95.60
2019-05-30T02:34:48.877Z,95.60
2019-05-30T02:37:18.251Z,95.60
2019-05-30T02:39:47.974Z,95.50
2019-05-30T02:42:17.604Z,95.50
2019-05-30T02:44:47.235Z,95.50
2019-05-30T02:47:16.710Z,95.50
2019-05-30T02:49:46.181Z,95.50
2019-05-30T02:52:15.909Z,95.70
2019-05-30T02:54:45.588Z,95.80
2019-05-30T02:57:15.184Z,95.90
2019-05-30T02:59:44.724Z,95.80
2019-05-30T03:02:17.236Z,95.90
2019-05-30T03:04:45.682Z,95.90
2019-05-30T03:07:15.332Z,95.90
2019-05-30T03:09:44.968Z,95.90
2019-05-30T03:12:14.543Z,96.10
2019-05-30T03:14:44.197Z,96.10
2019-05-30T03:17:14.633Z,96.00
2019-05-30T03:19:44.365Z,96.00
2019-05-30T03:22:14.252Z,95.90
2019-05-30T03:24:44.100Z,96.00
2019-05-30T03:27:14.199Z,95.90
2019-05-30T03:29:43.853Z,95.70
2019-05-30T03:32:57.658Z,95.70
2019-05-30T03:34:44.534Z,95.60
2019-05-30T03:37:26.866Z,95.70
2019-05-30T03:39:45.246Z,95.50
2019-05-30T03:42:15.864Z,95.60
2019-05-30T03:44:46.037Z,95.70
2019-05-30T03:47:15.865Z,95.70
2019-05-30T03:49:45.213Z,95.60
2019-05-30T03:52:17.061Z,95.40
2019-05-30T03:54:46.393Z,95.40
2019-05-30T03:57:18.597Z,95.30
2019-05-30T03:59:57.233Z,95.40
2019-05-30T04:02:57.617Z,95.30
2019-05-30T04:05:25.752Z,95.10
2019-05-30T04:07:56.726Z,95.20
2019-05-30T04:10:29.165Z,95.10
2019-05-30T04:13:12.138Z,95.50
2019-05-30T04:15:43.557Z,94.90
2019-05-30T04:18:14.637Z,94.80
2019-05-30T04:20:45.586Z,94.70
2019-05-30T04:23:16.656Z,94.70
2019-05-30T04:25:46.522Z,94.60
2019-05-30T04:28:16.385Z,94.50
2019-05-30T04:30:47.361Z,94.50
2019-05-30T04:33:32.546Z,94.50
2019-05-30T04:35:52.958Z,95.30
2019-05-30T04:38:26.609Z,94.30
2019-05-30T04:40:56.346Z,95.10
2019-05-30T04:43:25.923Z,94.20
2019-05-30T04:45:55.665Z,94.20
2019-05-30T04:48:25.834Z,94.10
2019-05-30T04:50:55.720Z,94.10
2019-05-30T04:53:25.772Z,94.20
2019-05-30T04:55:55.798Z,94.00
2019-05-30T04:58:26.406Z,93.80
2019-05-30T05:00:56.261Z,93.90
2019-05-30T05:03:44.288Z,94.00
2019-05-30T05:05:58.062Z,93.80
2019-05-30T05:08:27.751Z,93.80
2019-05-30T05:10:57.370Z,93.40
2019-05-30T05:13:26.917Z,93.50
2019-05-30T05:15:56.604Z,93.10
2019-05-30T05:18:26.381Z,93.10
2019-05-30T05:20:55.780Z,93.30
2019-05-30T05:23:25.477Z,92.70
2019-05-30T05:26:00.828Z,92.60
2019-05-30T05:28:26.462Z,91.90
2019-05-30T05:30:55.992Z,91.90
2019-05-30T05:33:25.471Z,92.00
2019-05-30T05:35:54.933Z,92.00
2019-05-30T05:38:24.505Z,92.00
2019-05-30T05:40:53.967Z,91.90
2019-05-30T05:43:24.371Z,91.30
2019-05-30T05:45:54.178Z,91.20
2019-05-30T05:48:24.696Z,90.90
2019-05-30T05:50:54.214Z,88.20
2019-05-30T05:53:24.958Z,88.40
2019-05-30T05:55:54.532Z,88.90
2019-05-30T05:58:26.105Z,88.00
2019-05-30T06:00:55.199Z,87.80
2019-05-30T06:03:24.803Z,86.70
2019-05-30T06:05:54.927Z,85.10
2019-05-30T06:08:25.758Z,85.10
2019-05-30T06:10:56.706Z,85.50
2019-05-30T06:13:26.288Z,85.60
2019-05-30T06:15:55.773Z,86.00
2019-05-30T06:18:26.314Z,86.50
2019-05-30T06:20:56.237Z,85.90
2019-05-30T06:23:33.705Z,85.60
2019-05-30T06:26:03.342Z,82.90
2019-05-30T06:28:33.193Z,83.10
2019-05-30T06:31:02.742Z,82.70
2019-05-30T06:33:32.302Z,83.40
2019-05-30T06:36:02.047Z,83.20
2019-05-30T06:38:32.191Z,83.50
2019-05-30T06:41:01.724Z,83.80
2019-05-30T06:43:31.263Z,83.00
2019-05-30T06:46:00.933Z,79.70
2019-05-30T06:48:30.964Z,80.40
2019-05-30T06:51:00.820Z,81.00
2019-05-30T06:53:31.299Z,79.80
2019-05-30T06:56:01.273Z,82.10
2019-05-30T06:58:45.762Z,81.40
2019-05-30T07:01:02.103Z,81.70
2019-05-30T07:03:32.773Z,79.30
2019-05-30T07:06:02.951Z,79.70
2019-05-30T07:08:33.116Z,75.80
2019-05-30T07:11:03.064Z,71.70
2019-05-30T07:13:33.700Z,74.40
2019-05-30T07:16:03.315Z,72.00
2019-05-30T07:18:36.192Z,69.90
2019-05-30T07:21:05.134Z,69.40
2019-05-30T07:23:34.796Z,71.70
2019-05-30T07:26:04.596Z,73.90
2019-05-30T07:28:34.517Z,70.00
2019-05-30T07:31:04.015Z,69.40
2019-05-30T07:33:34.536Z,72.30
2019-05-30T07:36:04.329Z,71.00
2019-05-30T07:38:34.985Z,70.40
2019-05-30T07:41:04.399Z,68.80
2019-05-30T07:43:35.216Z,65.30
2019-05-30T07:46:05.114Z,65.10
2019-05-30T07:48:35.203Z,62.80
2019-05-30T07:51:04.835Z,61.80
2019-05-30T07:53:34.949Z,58.40
2019-05-30T07:56:05.695Z,57.60
2019-05-30T07:58:35.414Z,57.90
2019-05-30T08:01:05.041Z,58.10
2019-05-30T08:03:34.991Z,57.80
2019-05-30T08:06:04.778Z,53.40
2019-05-30T08:08:36.138Z,51.20
2019-05-30T08:11:09.477Z,49.60
2019-05-30T08:13:37.363Z,49.80
2019-05-30T08:16:06.924Z,49.10
2019-05-30T08:18:37.835Z,47.40
2019-05-30T08:21:07.535Z,45.90
2019-05-30T08:23:38.329Z,46.30
2019-05-30T08:26:08.183Z,45.20
2019-05-30T08:28:39.612Z,43.40
2019-05-30T08:31:14.431Z,42.10
2019-05-30T08:33:47.341Z,42.20
2019-05-30T08:36:15.322Z,41.80
2019-05-30T08:38:47.954Z,40.80
2019-05-30T08:41:15.840Z,39.20
2019-05-30T08:43:46.776Z,39.90
2019-05-30T08:46:16.386Z,39.90
2019-05-30T08:48:45.813Z,39.30
2019-05-30T08:51:15.407Z,38.00
2019-05-30T08:53:44.933Z,37.20
2019-05-30T08:56:14.406Z,37.30
2019-05-30T08:58:43.884Z,35.70
2019-05-30T09:01:13.701Z,35.50
2019-05-30T09:03:44.151Z,33.20
2019-05-30T09:06:13.963Z,33.90
2019-05-30T09:08:46.272Z,34.20
2019-05-30T09:11:16.084Z,33.70
2019-05-30T09:13:46.742Z,33.60
2019-05-30T09:16:16.559Z,34.80
2019-05-30T09:18:47.289Z,35.20
2019-05-30T09:21:18.199Z,34.20
2019-05-30T09:23:48.134Z,33.30
2019-05-30T09:26:17.828Z,33.60
2019-05-30T09:28:48.299Z,34.20
2019-05-30T09:31:17.929Z,32.70
2019-05-30T09:33:48.568Z,32.50
2019-05-30T09:36:18.495Z,32.80
2019-05-30T09:38:52.095Z,32.30
2019-05-30T09:41:21.993Z,32.00
2019-05-30T09:43:52.788Z,31.70
2019-05-30T09:46:22.573Z,32.80
2019-05-30T09:48:52.287Z,33.90
2019-05-30T09:51:22.308Z,33.10
2019-05-30T09:53:52.840Z,33.80
2019-05-30T09:56:22.770Z,33.10
2019-05-30T09:58:52.877Z,31.70
2019-05-30T10:01:24.923Z,32.20
2019-05-30T10:03:55.024Z,31.90
2019-05-30T10:06:29.539Z,31.50
2019-05-30T10:08:56.679Z,31.90
2019-05-30T10:11:26.749Z,32.30
2019-05-30T10:13:56.917Z,31.60
2019-05-30T10:16:27.483Z,31.70
2019-05-30T10:18:58.339Z,32.90
2019-05-30T10:21:30.043Z,34.00
2019-05-30T10:24:00.427Z,33.50
2019-05-30T10:26:30.430Z,33.70
2019-05-30T10:29:00.234Z,32.80
2019-05-30T10:31:30.217Z,32.40
2019-05-30T10:34:00.157Z,31.60
2019-05-30T10:36:43.327Z,32.20
2019-05-30T10:39:02.007Z,31.90
2019-05-30T10:41:32.887Z,32.10
2019-05-30T10:44:02.761Z,32.30
2019-05-30T10:46:32.948Z,32.20
2019-05-30T10:49:03.991Z,31.80
2019-05-30T10:51:33.876Z,32.60
2019-05-30T10:54:04.125Z,33.20
2019-05-30T10:56:34.418Z,33.00
2019-05-30T10:59:04.580Z,32.10
2019-05-30T11:01:34.888Z,31.10
2019-05-30T11:04:06.629Z,31.80
2019-05-30T11:06:42.572Z,32.90
2019-05-30T11:09:12.796Z,33.40
2019-05-30T11:11:43.194Z,33.80
2019-05-30T11:14:16.857Z,32.40
2019-05-30T11:16:47.037Z,33.10
2019-05-30T11:19:20.475Z,33.70
2019-05-30T11:21:52.648Z,33.20
2019-05-30T11:24:22.124Z,33.40
2019-05-30T11:26:53.716Z,33.30
2019-05-30T11:29:23.825Z,34.90
2019-05-30T11:31:54.935Z,34.10
2019-05-30T11:34:25.512Z,32.70
2019-05-30T11:36:55.312Z,32.80
2019-05-30T11:39:25.704Z,32.80
2019-05-30T11:41:55.923Z,33.40
2019-05-30T11:44:26.223Z,33.90
2019-05-30T11:46:56.334Z,33.90
2019-05-30T11:49:26.574Z,34.10
2019-05-30T11:51:57.789Z,33.90
2019-05-30T11:54:27.642Z,34.10
2019-05-30T11:56:58.116Z,36.20
2019-05-30T11:59:28.081Z,36.80
2019-05-30T12:01:58.491Z,36.70
2019-05-30T12:04:29.156Z,35.60
2019-05-30T12:06:58.983Z,35.00
2019-05-30T12:09:28.670Z,33.70
2019-05-30T12:11:59.228Z,36.80
2019-05-30T12:14:28.904Z,37.00
2019-05-30T12:16:59.443Z,37.50
2019-05-30T12:19:29.224Z,36.00
2019-05-30T12:21:59.814Z,37.20
2019-05-30T12:24:29.402Z,35.90
2019-05-30T12:27:00.084Z,36.00
2019-05-30T12:29:29.912Z,35.40
2019-05-30T12:32:00.688Z,35.00
2019-05-30T12:34:31.035Z,37.00
2019-05-30T12:37:01.012Z,35.30
2019-05-30T12:39:30.871Z,36.30
2019-05-30T12:42:01.268Z,34.80
2019-05-30T12:44:30.945Z,35.60
2019-05-30T12:47:01.735Z,35.50
2019-05-30T12:49:31.275Z,35.90
2019-05-30T12:52:00.949Z,35.30
2019-05-30T12:54:30.929Z,35.40
2019-05-30T12:57:00.828Z,35.90
2019-05-30T12:59:30.527Z,35.00
2019-05-30T13:02:01.213Z,35.10
2019-05-30T13:04:31.145Z,34.30
2019-05-30T13:07:03.279Z,33.70
2019-05-30T13:09:32.919Z,33.80
2019-05-30T13:12:02.621Z,32.80
2019-05-30T13:14:33.920Z,32.50
2019-05-30T13:17:04.033Z,32.70
2019-05-30T13:19:33.788Z,34.50
2019-05-30T13:22:03.547Z,34.50
2019-05-30T13:24:34.364Z,33.70
2019-05-30T13:27:05.979Z,32.90
2019-05-30T13:29:35.606Z,33.60
2019-05-30T13:32:06.637Z,34.80
2019-05-30T13:34:36.425Z,35.60
2019-05-30T13:37:07.194Z,34.90
2019-05-30T13:39:36.876Z,34.60
2019-05-30T13:42:06.395Z,35.80
2019-05-30T13:44:35.998Z,36.00
2019-05-30T13:47:06.705Z,35.10
2019-05-30T13:49:36.391Z,35.90
2019-05-30T13:52:07.148Z,34.80
2019-05-30T13:54:36.984Z,35.00
2019-05-30T13:57:07.716Z,34.60
2019-05-30T13:59:37.731Z,35.40
2019-05-30T14:02:08.198Z,33.90
2019-05-30T14:04:38.039Z,33.80
2019-05-30T14:07:08.484Z,35.10
2019-05-30T14:09:38.060Z,34.70
2019-05-30T14:12:08.608Z,34.70
2019-05-30T14:14:39.916Z,34.20
2019-05-30T14:17:11.288Z,34.00
2019-05-30T14:19:40.478Z,33.40
2019-05-30T14:22:11.380Z,33.70
2019-05-30T14:24:41.149Z,36.70
2019-05-30T14:27:11.762Z,37.80
2019-05-30T14:29:41.532Z,38.60
2019-05-30T14:32:12.002Z,37.40
2019-05-30T14:34:41.765Z,36.40
2019-05-30T14:37:12.573Z,36.40
2019-05-30T14:39:42.993Z,36.90
2019-05-30T14:42:13.301Z,36.40
2019-05-30T14:44:42.946Z,36.60
2019-05-30T14:47:12.663Z,35.00
2019-05-30T14:49:43.709Z,35.60
2019-05-30T14:52:13.370Z,36.10
2019-05-30T14:54:43.302Z,35.60
2019-05-30T14:57:14.015Z,35.00
2019-05-30T14:59:44.315Z,35.20
2019-05-30T15:02:15.527Z,35.40
2019-05-30T15:04:45.118Z,35.70
2019-05-30T15:07:15.605Z,36.30
2019-05-30T15:09:46.619Z,35.60
2019-05-30T15:12:16.948Z,35.30
2019-05-30T15:14:46.811Z,34.90
2019-05-30T15:17:16.542Z,35.30
2019-05-30T15:19:46.248Z,36.00
2019-05-30T15:22:18.333Z,36.40
2019-05-30T15:24:47.134Z,35.60
2019-05-30T15:27:20.085Z,36.50
2019-05-30T15:29:49.191Z,36.20
2019-05-30T15:32:19.016Z,36.60
2019-05-30T15:34:48.553Z,37.80
2019-05-30T15:37:18.784Z,37.20
2019-05-30T15:39:48.584Z,36.50
2019-05-30T15:42:20.347Z,37.90
2019-05-30T15:44:50.213Z,38.20
2019-05-30T15:47:20.042Z,38.10
2019-05-30T15:49:54.414Z,37.50
2019-05-30T15:52:24.175Z,37.10
2019-05-30T15:54:53.779Z,36.80
2019-05-30T15:57:23.511Z,37.40
2019-05-30T15:59:53.194Z,37.70
2019-05-30T16:02:23.033Z,39.60
2019-05-30T16:04:52.725Z,41.20
2019-05-30T16:07:22.449Z,43.10
2019-05-30T16:09:52.382Z,43.70
2019-05-30T16:12:23.166Z,45.30
2019-05-30T16:14:53.611Z,45.70
2019-05-30T16:17:23.149Z,46.20
2019-05-30T16:19:52.795Z,46.60
2019-05-30T16:22:22.638Z,47.00
2019-05-30T16:24:52.431Z,46.20
2019-05-30T16:27:22.078Z,46.60
2019-05-30T16:29:52.597Z,47.80
2019-05-30T16:32:22.919Z,48.20
2019-05-30T16:34:53.357Z,48.10
2019-05-30T16:37:22.854Z,47.60
2019-05-30T16:40:05.494Z,49.30
2019-05-30T16:42:23.778Z,49.60
2019-05-30T16:44:53.497Z,49.60
2019-05-30T16:47:24.691Z,49.70
2019-05-30T16:49:54.378Z,49.60
2019-05-30T16:52:25.448Z,51.50
2019-05-30T16:54:55.593Z,52.40
2019-05-30T16:57:28.438Z,51.20
2019-05-30T16:59:59.028Z,51.60
2019-05-30T17:02:28.662Z,51.40
2019-05-30T17:04:58.375Z,51.60
2019-05-30T17:07:28.689Z,52.30
2019-05-30T17:09:59.959Z,52.70
2019-05-30T17:12:29.695Z,52.50
2019-05-30T17:15:00.906Z,54.80
2019-05-30T17:17:31.760Z,53.10
2019-05-30T17:20:01.696Z,52.40
2019-05-30T17:22:31.818Z,52.40
2019-05-30T17:25:01.853Z,53.30
2019-05-30T17:27:32.335Z,53.10
2019-05-30T17:30:02.079Z,55.00
2019-05-30T17:32:32.349Z,53.40
2019-05-30T17:35:02.376Z,54.10
2019-05-30T17:37:31.987Z,54.00
2019-05-30T17:40:01.992Z,53.90
2019-05-30T17:42:31.595Z,53.70
2019-05-30T17:45:02.949Z,54.50
2019-05-30T17:47:32.681Z,54.40
2019-05-30T17:50:02.440Z,54.40
2019-05-30T17:52:33.469Z,54.00
2019-05-30T17:55:03.227Z,54.70
2019-05-30T17:57:34.738Z,56.90
2019-05-30T18:00:13.505Z,56.60
2019-05-30T18:02:43.685Z,56.30
2019-05-30T18:05:13.857Z,58.00
2019-05-30T18:07:43.851Z,56.50
2019-05-30T18:10:15.897Z,58.80
2019-05-30T18:12:45.609Z,56.20
2019-05-30T18:15:15.464Z,59.60
2019-05-30T18:17:45.287Z,59.30
2019-05-30T18:20:14.841Z,59.10
2019-05-30T18:22:44.431Z,60.40
2019-05-30T18:25:14.050Z,59.10
2019-05-30T18:27:43.628Z,61.00
2019-05-30T18:30:13.321Z,59.80
2019-05-30T18:32:43.066Z,65.80
2019-05-30T18:35:12.948Z,64.90
2019-05-30T18:37:43.229Z,65.60
2019-05-30T18:40:13.176Z,62.60
2019-05-30T18:42:42.884Z,63.50
2019-05-30T18:45:12.590Z,65.30
2019-05-30T18:47:42.490Z,67.50
2019-05-30T18:50:12.182Z,67.60
2019-05-30T18:52:41.805Z,66.60
2019-05-30T18:55:11.528Z,66.60
2019-05-30T18:57:41.063Z,68.80
2019-05-30T19:00:13.214Z,68.30
2019-05-30T19:02:42.192Z,68.00
2019-05-30T19:05:12.721Z,70.70
2019-05-30T19:07:42.838Z,70.50
2019-05-30T19:10:12.454Z,68.10
2019-05-30T19:12:42.038Z,73.40
2019-05-30T19:15:11.683Z,72.50
2019-05-30T19:17:41.593Z,74.10
2019-05-30T19:20:11.195Z,72.20
2019-05-30T19:22:41.664Z,70.60
2019-05-30T19:25:12.163Z,74.70
2019-05-30T19:27:43.275Z,73.50
2019-05-30T19:30:13.007Z,73.70
2019-05-30T19:32:42.696Z,75.00
2019-05-30T19:35:12.332Z,76.10
2019-05-30T19:37:42.052Z,78.00
2019-05-30T19:40:13.324Z,77.20
2019-05-30T19:42:43.417Z,78.70
2019-05-30T19:45:14.651Z,78.50
2019-05-30T19:47:44.422Z,78.20
2019-05-30T19:50:14.069Z,79.70
2019-05-30T19:52:46.772Z,81.50
2019-05-30T19:55:14.982Z,83.40
2019-05-30T19:57:44.701Z,84.00
2019-05-30T20:00:14.447Z,84.10
2019-05-30T20:02:43.965Z,84.60
2019-05-30T20:05:13.915Z,85.20
2019-05-30T20:07:43.559Z,85.70
2019-05-30T20:10:13.262Z,84.20
2019-05-30T20:12:43.081Z,84.20
2019-05-30T20:15:13.084Z,82.90
2019-05-30T20:17:42.702Z,83.00
2019-05-30T20:20:13.607Z,83.70
2019-05-30T20:22:43.476Z,86.30
2019-05-30T20:25:13.310Z,84.00
2019-05-30T20:27:43.199Z,85.50
2019-05-30T20:30:13.202Z,86.90
2019-05-30T20:32:44.043Z,86.90
2019-05-30T20:35:14.463Z,87.70
2019-05-30T20:37:44.466Z,85.60
2019-05-30T20:40:14.175Z,86.60
2019-05-30T20:42:43.701Z,84.10
2019-05-30T20:45:14.741Z,81.90
2019-05-30T20:47:44.766Z,81.80
2019-05-30T20:50:15.225Z,80.40
2019-05-30T20:52:45.889Z,80.20
2019-05-30T20:55:17.143Z,80.00
2019-05-30T20:57:47.030Z,77.90
2019-05-30T21:00:18.048Z,81.00
2019-05-30T21:02:54.858Z,79.10
2019-05-30T21:05:24.913Z,79.90
2019-05-30T21:07:55.508Z,78.80
2019-05-30T21:10:25.098Z,79.40
2019-05-30T21:12:54.804Z,77.90
2019-05-30T21:15:24.452Z,77.50
2019-05-30T21:17:54.127Z,77.10
2019-05-30T21:20:23.754Z,80.10
2019-05-30T21:22:53.576Z,80.10
2019-05-30T21:25:23.319Z,79.50
2019-05-30T21:27:52.996Z,79.40
2019-05-30T21:30:22.571Z,80.70
2019-05-30T21:32:52.456Z,83.20
2019-05-30T21:35:22.472Z,82.90
2019-05-30T21:37:53.979Z,81.10
2019-05-30T21:40:23.659Z,81.20
2019-05-30T21:43:05.042Z,80.50
2019-05-30T21:45:25.492Z,83.20
2019-05-30T21:47:55.051Z,87.10
2019-05-30T21:50:24.556Z,83.60
2019-05-30T21:52:54.048Z,85.40
2019-05-30T21:55:23.692Z,83.40
2019-05-30T21:57:53.276Z,83.60
2019-05-30T22:00:42.331Z,84.30
2019-05-30T22:03:13.125Z,84.30
2019-05-30T22:05:43.332Z,85.20
2019-05-30T22:08:12.859Z,85.80
2019-05-30T22:10:43.283Z,87.10
2019-05-30T22:13:14.186Z,87.90
2019-05-30T22:15:43.898Z,89.10
2019-05-30T22:18:13.642Z,90.10
2019-05-30T22:20:44.463Z,90.30
2019-05-30T22:23:14.387Z,90.60
2019-05-30T22:25:44.178Z,91.50
2019-05-30T22:28:14.060Z,92.10
2019-05-30T22:30:44.292Z,92.20
2019-05-30T22:33:25.172Z,92.70
2019-05-30T22:35:55.943Z,93.00
2019-05-30T22:38:25.550Z,93.70
2019-05-30T22:40:56.181Z,94.00
2019-05-30T22:43:25.971Z,94.20
2019-05-30T22:45:56.849Z,93.90
2019-05-30T22:48:26.559Z,93.00
2019-05-30T22:50:57.032Z,92.90
2019-05-30T22:53:26.727Z,92.70
2019-05-30T22:55:57.433Z,92.50
2019-05-30T22:58:27.131Z,92.50
2019-05-30T23:00:56.797Z,92.80
2019-05-30T23:03:26.426Z,92.90
2019-05-30T23:05:57.382Z,93.20
2019-05-30T23:08:27.366Z,93.40
2019-05-30T23:10:56.951Z,93.70
2019-05-30T23:13:39.702Z,94.00
2019-05-30T23:15:58.351Z,94.30
2019-05-30T23:18:27.918Z,94.60
2019-05-30T23:20:57.782Z,94.50
2019-05-30T23:23:27.306Z,94.60
2019-05-30T23:25:57.363Z,94.70
2019-05-30T23:28:27.056Z,94.70
2019-05-30T23:30:58.251Z,95.00
2019-05-30T23:33:27.985Z,95.30
2019-05-30T23:35:58.559Z,95.40
2019-05-30T23:38:28.152Z,95.50
2019-05-30T23:40:59.175Z,95.60
2019-05-30T23:43:29.051Z,95.50
2019-05-30T23:45:59.655Z,95.60
2019-05-30T23:48:29.389Z,95.40
2019-05-30T23:51:00.024Z,95.60
2019-05-30T23:53:29.784Z,95.30
2019-05-30T23:56:00.563Z,95.30
2019-05-30T23:58:30.557Z,95.20
